Terminal Aerodrome Forecast
Issued by NWS

Home | Current Version | Previous Version | Text Only | Print | Product List | Glossary On
Versions: 1 2 3 4 5 6 7 8 9 10 11 12 13 14 15 16 17 18 19 20
000
FTUS45 KGJT 222200 AAA
TAFEGE
TAF AMD
KEGE 222200Z 2222/2318 23013G26KT P6SM VCSH SCT050 BKN090
     FM230200 10004KT P6SM FEW090 SCT150
     FM230700 VRB03KT P6SM SCT250
     FM231600 27007KT P6SM SCT250=

USA.gov is the U.S. government's official web portal to all federal, state and local government web resources and services.